EHDV

D15-fa-1 Sea

D15-fa-1 Sea, The Netherlands
METAR EHDV 222125Z AUTO VRB03KT 9000 FEW048/// 09/08 Q1007 W///H///
Observed Flight Rules
Apr-22 @ 21:25 UTC (17 minutes ago) Visual Flight Rules
Wind Visibility Clouds
Variable at 3 knots 8,996 meters
  • Few at 4,800' AGL
Temperatures Readings
Current 9°C / 48°F
Dewpoint 8°C / 46°F
Humidity 94%
Altimeter 29.73" Hg
Pressure 1007 hPa
Elevation 50
METAR EHDV 222125Z AUTO VRB03KT 9000 FEW048/// 09/08 Q1007 W///H///
Observed Flight Rules
Apr-22 @ 21:25 UTC
(17 minutes ago)
VFR
Wind Visibility
Variable at 3 knots 8,996 meters
Clouds
  • Few at 4,800' AGL
Temperature Dewpoint
9°C / 48°F 8°C / 46°F
Humidity Altimeter Pressure
94% 29.73" Hg 1007 hPa